Photometre #75[NE_1.6] Paris AOT

File : 20220829_75.hum

29/08/2022,05:58:02,TEMP=18.8,BA=5.68,STAT.A=4.5,ExtBa=13.88
29/08/2022,06:01:55,TEMP=19.2,BA=5.64,STAT.A=4.5,ExtBa=13.85
29/08/2022,06:06:27,TEMP=19.3,BA=5.64,STAT.A=4.5,ExtBa=13.85
29/08/2022,06:11:49,TEMP=19.4,BA=5.68,STAT.A=4.5,ExtBa=13.83
29/08/2022,06:18:16,TEMP=19.5,BA=5.68,STAT.A=4.5,ExtBa=13.84
29/08/2022,06:26:11,TEMP=19.6,BA=5.60,STAT.A=4.5,ExtBa=13.88
29/08/2022,06:36:09,TEMP=19.4,BA=5.68,STAT.B=4.5,ExtBa=13.90
29/08/2022,06:40:53,TEMP=19.5,BA=5.68,STAT.A=4.5,ExtBa=13.86
29/08/2022,06:46:12,TEMP=19.6,BA=5.68,STAT.A=4.5,ExtBa=13.86
29/08/2022,06:52:09,TEMP=19.7,BA=5.68,STAT.A=4.5,ExtBa=13.87
29/08/2022,06:58:54,TEMP=19.8,BA=5.68,STAT.A=4.5,ExtBa=13.87
29/08/2022,07:06:37,TEMP=19.9,BA=5.40,STAT.C=4.5,ExtBa=13.89
29/08/2022,07:20:57,TEMP=20.7,BA=5.36,STAT.A=4.5,ExtBa=12.81
29/08/2022,07:26:02,TEMP=20.6,BA=5.36,STAT.A=4.5,ExtBa=13.07
29/08/2022,07:38:31,TEMP=21.4,BA=5.68,STAT.A=5.0,ExtBa=13.50
29/08/2022,07:53:44,TEMP=22.3,BA=5.68,STAT.A=5.0,ExtBa=13.74
29/08/2022,08:12:50,TEMP=23.6,BA=5.68,STAT.B=5.0,ExtBa=13.90
29/08/2022,08:22:17,TEMP=24.2,BA=5.36,STAT.D=5.0,ExtBa=13.11
29/08/2022,08:37:17,TEMP=24.6,BA=5.68,STAT.D=5.0,ExtBa=13.67
29/08/2022,08:52:18,TEMP=25.4,BA=5.68,STAT.F,ExtBa=13.84
29/08/2022,09:07:17,TEMP=26.1,BA=5.36,STAT.D=5.0,ExtBa=12.97
29/08/2022,09:22:17,TEMP=26.5,BA=5.68,STAT.D=5.0,ExtBa=13.54
29/08/2022,09:37:17,TEMP=27.0,BA=5.68,STAT.D=5.5,ExtBa=13.75
29/08/2022,09:52:19,TEMP=27.7,BA=5.68,STAT.F,ExtBa=13.82
29/08/2022,10:10:03,TEMP=28.1,BA=5.36,STAT.D=5.5,ExtBa=13.12
29/08/2022,10:22:17,TEMP=28.6,BA=5.68,STAT.D=5.5,ExtBa=13.51
29/08/2022,10:37:18,TEMP=29.6,BA=5.68,STAT.D=5.5,ExtBa=13.72
29/08/2022,10:52:19,TEMP=29.5,BA=5.68,STAT.F,ExtBa=13.78
29/08/2022,11:07:17,TEMP=29.4,BA=5.36,STAT.D=5.5,ExtBa=12.97
29/08/2022,11:22:18,TEMP=29.3,BA=5.64,STAT.D=5.5,ExtBa=13.49
29/08/2022,11:37:18,TEMP=30.2,BA=5.64,STAT.D=5.5,ExtBa=13.67
29/08/2022,11:52:19,TEMP=30.5,BA=5.64,STAT.F,ExtBa=13.76
29/08/2022,12:07:17,TEMP=31.1,BA=5.60,STAT.D=5.5,ExtBa=13.60
29/08/2022,12:22:18,TEMP=31.3,BA=5.64,STAT.D=5.5,ExtBa=13.74
29/08/2022,12:37:18,TEMP=31.7,BA=5.60,STAT.D=5.5,ExtBa=13.74
29/08/2022,12:52:19,TEMP=32.1,BA=5.60,STAT.F,ExtBa=13.72
29/08/2022,13:07:17,TEMP=32.2,BA=5.32,STAT.D=5.5,ExtBa=13.03
29/08/2022,13:22:17,TEMP=32.2,BA=5.56,STAT.D=5.5,ExtBa=13.50
29/08/2022,13:37:17,TEMP=32.8,BA=5.60,STAT.D=5.5,ExtBa=13.65
29/08/2022,13:52:19,TEMP=32.9,BA=5.60,STAT.F,ExtBa=13.68
29/08/2022,14:07:17,TEMP=32.9,BA=5.32,STAT.D=5.5,ExtBa=13.02
29/08/2022,14:22:17,TEMP=33.0,BA=5.56,STAT.D=5.5,ExtBa=13.47
29/08/2022,14:37:17,TEMP=33.7,BA=5.56,STAT.D=5.5,ExtBa=13.60
29/08/2022,14:52:18,TEMP=33.8,BA=5.56,STAT.F,ExtBa=13.64
29/08/2022,15:07:17,TEMP=33.7,BA=5.28,STAT.D=5.5,ExtBa=13.01
29/08/2022,15:22:17,TEMP=33.3,BA=5.56,STAT.D=5.5,ExtBa=13.45
29/08/2022,15:31:46,TEMP=33.4,BA=5.56,STAT.B=5.5,ExtBa=13.51
29/08/2022,15:50:52,TEMP=33.2,BA=5.52,STAT.A=5.5,ExtBa=13.40
29/08/2022,16:06:05,TEMP=33.6,BA=5.56,STAT.A=5.5,ExtBa=13.56
29/08/2022,16:18:34,TEMP=33.3,BA=5.56,STAT.A=5.5,ExtBa=13.62
29/08/2022,16:29:03,TEMP=32.8,BA=5.32,STAT.A=5.5,ExtBa=13.63
29/08/2022,16:37:59,TEMP=31.8,BA=5.32,STAT.C=5.5,ExtBa=13.63
29/08/2022,16:52:10,TEMP=31.5,BA=5.28,STAT.A=5.5,ExtBa=12.91
29/08/2022,16:54:05,TEMP=31.7,BA=5.28,STAT.A=5.5,ExtBa=12.95
29/08/2022,17:02:26,TEMP=31.5,BA=5.32,STAT.A=5.5,ExtBa=13.26
29/08/2022,17:04:19,TEMP=31.9,BA=5.32,STAT.A=5.5,ExtBa=13.24
29/08/2022,17:08:25,TEMP=31.7,BA=5.32,STAT.B=5.5,ExtBa=13.28
29/08/2022,17:18:23,TEMP=31.4,BA=5.28,STAT.A=5.5,ExtBa=12.94
29/08/2022,17:26:18,TEMP=31.1,BA=5.44,STAT.A=5.5,ExtBa=13.21
29/08/2022,17:32:45,TEMP=30.9,BA=5.56,STAT.A=5.5,ExtBa=13.30
29/08/2022,17:38:07,TEMP=30.5,BA=5.56,STAT.A=5.5,ExtBa=13.36
29/08/2022,17:42:39,TEMP=30.3,BA=5.52,STAT.A=5.5,ExtBa=13.39
29/08/2022,17:46:32,TEMP=30.2,BA=5.52,STAT.A=5.5,ExtBa=13.37